sensor_id;sensor_type;location;lat;lon;timestamp;P1;durP1;ratioP1;P2;durP2;ratioP2
2638;SDS011;1329;51.384;7.122;2023-08-30T00:01:11;4.57;;;3.92;;
2638;SDS011;1329;51.384;7.122;2023-08-30T00:03:38;4.43;;;4.03;;
2638;SDS011;1329;51.384;7.122;2023-08-30T00:06:05;4.82;;;4.07;;
2638;SDS011;1329;51.384;7.122;2023-08-30T00:08:33;4.50;;;4.07;;
2638;SDS011;1329;51.384;7.122;2023-08-30T00:11:02;4.88;;;4.38;;
2638;SDS011;1329;51.384;7.122;2023-08-30T00:13:29;5.18;;;4.30;;
2638;SDS011;1329;51.384;7.122;2023-08-30T00:15:56;4.13;;;3.72;;
2638;SDS011;1329;51.384;7.122;2023-08-30T00:18:23;4.43;;;3.63;;
2638;SDS011;1329;51.384;7.122;2023-08-30T00:20:50;4.38;;;3.97;;
2638;SDS011;1329;51.384;7.122;2023-08-30T00:23:16;4.70;;;4.18;;
2638;SDS011;1329;51.384;7.122;2023-08-30T00:25:43;4.72;;;4.32;;
2638;SDS011;1329;51.384;7.122;2023-08-30T00:28:11;6.43;;;4.88;;
2638;SDS011;1329;51.384;7.122;2023-08-30T00:30:38;6.07;;;4.32;;
2638;SDS011;1329;51.384;7.122;2023-08-30T00:33:05;5.05;;;4.22;;
2638;SDS011;1329;51.384;7.122;2023-08-30T00:35:32;7.05;;;4.40;;
2638;SDS011;1329;51.384;7.122;2023-08-30T00:37:59;5.20;;;4.70;;
2638;SDS011;1329;51.384;7.122;2023-08-30T00:40:26;5.32;;;4.47;;
2638;SDS011;1329;51.384;7.122;2023-08-30T00:42:57;4.93;;;4.43;;
2638;SDS011;1329;51.384;7.122;2023-08-30T00:45:25;4.45;;;4.05;;
2638;SDS011;1329;51.384;7.122;2023-08-30T00:47:53;5.70;;;4.47;;
2638;SDS011;1329;51.384;7.122;2023-08-30T00:50:20;4.95;;;4.45;;
2638;SDS011;1329;51.384;7.122;2023-08-30T00:52:47;4.82;;;4.38;;
2638;SDS011;1329;51.384;7.122;2023-08-30T00:55:15;6.75;;;4.15;;
2638;SDS011;1329;51.384;7.122;2023-08-30T00:57:42;4.72;;;4.30;;
2638;SDS011;1329;51.384;7.122;2023-08-30T01:00:09;4.13;;;3.80;;
2638;SDS011;1329;51.384;7.122;2023-08-30T01:02:41;4.65;;;4.13;;
2638;SDS011;1329;51.384;7.122;2023-08-30T01:05:08;5.10;;;4.57;;
2638;SDS011;1329;51.384;7.122;2023-08-30T01:07:35;5.72;;;5.22;;
2638;SDS011;1329;51.384;7.122;2023-08-30T01:10:02;5.70;;;5.20;;
2638;SDS011;1329;51.384;7.122;2023-08-30T01:12:31;5.45;;;5.03;;
2638;SDS011;1329;51.384;7.122;2023-08-30T01:15:05;6.53;;;5.93;;
2638;SDS011;1329;51.384;7.122;2023-08-30T01:17:36;6.20;;;5.60;;
2638;SDS011;1329;51.384;7.122;2023-08-30T01:20:07;6.68;;;6.05;;
2638;SDS011;1329;51.384;7.122;2023-08-30T01:22:40;7.00;;;6.40;;
2638;SDS011;1329;51.384;7.122;2023-08-30T01:25:20;6.00;;;5.40;;
2638;SDS011;1329;51.384;7.122;2023-08-30T01:28:01;6.07;;;5.50;;
2638;SDS011;1329;51.384;7.122;2023-08-30T01:30:32;6.47;;;5.88;;
2638;SDS011;1329;51.384;7.122;2023-08-30T01:33:00;6.53;;;5.88;;
2638;SDS011;1329;51.384;7.122;2023-08-30T01:35:28;7.97;;;6.57;;
2638;SDS011;1329;51.384;7.122;2023-08-30T01:37:58;7.68;;;6.90;;
2638;SDS011;1329;51.384;7.122;2023-08-30T01:40:26;8.15;;;7.43;;
2638;SDS011;1329;51.384;7.122;2023-08-30T01:42:55;7.80;;;7.00;;
2638;SDS011;1329;51.384;7.122;2023-08-30T01:45:25;7.53;;;6.93;;
2638;SDS011;1329;51.384;7.122;2023-08-30T01:47:53;6.65;;;6.07;;
2638;SDS011;1329;51.384;7.122;2023-08-30T01:50:22;7.47;;;6.68;;
2638;SDS011;1329;51.384;7.122;2023-08-30T01:52:49;6.70;;;6.10;;
2638;SDS011;1329;51.384;7.122;2023-08-30T01:55:18;7.78;;;7.05;;
2638;SDS011;1329;51.384;7.122;2023-08-30T01:57:48;7.60;;;6.90;;
2638;SDS011;1329;51.384;7.122;2023-08-30T02:00:15;7.20;;;6.50;;
2638;SDS011;1329;51.384;7.122;2023-08-30T02:02:43;7.60;;;6.68;;
2638;SDS011;1329;51.384;7.122;2023-08-30T02:05:11;7.90;;;7.10;;
2638;SDS011;1329;51.384;7.122;2023-08-30T02:07:40;7.28;;;6.68;;
2638;SDS011;1329;51.384;7.122;2023-08-30T02:10:17;7.22;;;6.55;;
2638;SDS011;1329;51.384;7.122;2023-08-30T02:12:51;7.93;;;7.22;;
2638;SDS011;1329;51.384;7.122;2023-08-30T02:15:20;8.50;;;7.38;;
2638;SDS011;1329;51.384;7.122;2023-08-30T02:17:52;8.32;;;7.32;;
2638;SDS011;1329;51.384;7.122;2023-08-30T02:20:20;7.65;;;6.97;;
2638;SDS011;1329;51.384;7.122;2023-08-30T02:22:48;6.97;;;6.38;;
2638;SDS011;1329;51.384;7.122;2023-08-30T02:25:15;8.70;;;7.90;;
2638;SDS011;1329;51.384;7.122;2023-08-30T02:27:42;7.70;;;6.97;;
2638;SDS011;1329;51.384;7.122;2023-08-30T02:30:09;7.82;;;7.13;;
2638;SDS011;1329;51.384;7.122;2023-08-30T02:32:37;8.35;;;7.65;;
2638;SDS011;1329;51.384;7.122;2023-08-30T02:35:05;8.52;;;7.72;;
2638;SDS011;1329;51.384;7.122;2023-08-30T02:37:33;8.32;;;7.50;;
2638;SDS011;1329;51.384;7.122;2023-08-30T02:40:02;8.68;;;7.82;;
2638;SDS011;1329;51.384;7.122;2023-08-30T02:42:29;8.25;;;7.45;;
2638;SDS011;1329;51.384;7.122;2023-08-30T02:44:56;8.38;;;7.57;;
2638;SDS011;1329;51.384;7.122;2023-08-30T02:47:23;9.15;;;8.25;;
2638;SDS011;1329;51.384;7.122;2023-08-30T02:49:50;8.82;;;7.70;;
2638;SDS011;1329;51.384;7.122;2023-08-30T02:52:18;8.43;;;7.68;;
2638;SDS011;1329;51.384;7.122;2023-08-30T02:54:45;9.00;;;8.10;;
2638;SDS011;1329;51.384;7.122;2023-08-30T02:57:12;9.70;;;8.75;;
2638;SDS011;1329;51.384;7.122;2023-08-30T02:59:39;8.98;;;8.07;;
2638;SDS011;1329;51.384;7.122;2023-08-30T03:02:06;8.48;;;7.60;;
2638;SDS011;1329;51.384;7.122;2023-08-30T03:04:33;9.43;;;8.40;;
2638;SDS011;1329;51.384;7.122;2023-08-30T03:07:00;10.15;;;9.25;;
2638;SDS011;1329;51.384;7.122;2023-08-30T03:09:28;9.82;;;8.82;;
2638;SDS011;1329;51.384;7.122;2023-08-30T03:11:55;9.25;;;8.38;;
2638;SDS011;1329;51.384;7.122;2023-08-30T03:14:22;8.43;;;7.65;;
2638;SDS011;1329;51.384;7.122;2023-08-30T03:16:49;9.82;;;8.52;;
2638;SDS011;1329;51.384;7.122;2023-08-30T03:19:16;10.68;;;9.65;;
2638;SDS011;1329;51.384;7.122;2023-08-30T03:21:43;10.48;;;9.52;;
2638;SDS011;1329;51.384;7.122;2023-08-30T03:24:10;10.05;;;9.13;;
2638;SDS011;1329;51.384;7.122;2023-08-30T03:26:40;9.82;;;8.60;;
2638;SDS011;1329;51.384;7.122;2023-08-30T03:29:08;9.82;;;8.82;;
2638;SDS011;1329;51.384;7.122;2023-08-30T03:31:35;10.38;;;9.48;;
2638;SDS011;1329;51.384;7.122;2023-08-30T03:34:02;12.45;;;11.13;;
2638;SDS011;1329;51.384;7.122;2023-08-30T03:36:29;12.68;;;11.48;;
2638;SDS011;1329;51.384;7.122;2023-08-30T03:38:56;12.13;;;10.95;;
2638;SDS011;1329;51.384;7.122;2023-08-30T03:41:23;12.25;;;11.13;;
2638;SDS011;1329;51.384;7.122;2023-08-30T03:43:51;12.82;;;11.63;;
2638;SDS011;1329;51.384;7.122;2023-08-30T03:46:18;12.35;;;11.15;;
2638;SDS011;1329;51.384;7.122;2023-08-30T03:48:45;11.25;;;10.18;;
2638;SDS011;1329;51.384;7.122;2023-08-30T03:51:12;12.07;;;10.93;;
2638;SDS011;1329;51.384;7.122;2023-08-30T03:53:39;12.98;;;11.32;;
2638;SDS011;1329;51.384;7.122;2023-08-30T03:56:06;14.20;;;11.82;;
2638;SDS011;1329;51.384;7.122;2023-08-30T03:58:33;12.95;;;11.75;;
2638;SDS011;1329;51.384;7.122;2023-08-30T04:01:01;13.00;;;11.80;;
2638;SDS011;1329;51.384;7.122;2023-08-30T04:03:28;12.45;;;11.20;;
2638;SDS011;1329;51.384;7.122;2023-08-30T04:05:56;12.25;;;11.05;;
2638;SDS011;1329;51.384;7.122;2023-08-30T04:08:23;12.43;;;11.25;;
2638;SDS011;1329;51.384;7.122;2023-08-30T04:10:52;12.25;;;11.05;;
2638;SDS011;1329;51.384;7.122;2023-08-30T04:13:19;12.43;;;11.23;;
2638;SDS011;1329;51.384;7.122;2023-08-30T04:15:46;12.70;;;11.38;;
2638;SDS011;1329;51.384;7.122;2023-08-30T04:18:14;12.25;;;11.05;;
2638;SDS011;1329;51.384;7.122;2023-08-30T04:20:43;12.68;;;11.52;;
2638;SDS011;1329;51.384;7.122;2023-08-30T04:23:10;13.43;;;12.05;;
2638;SDS011;1329;51.384;7.122;2023-08-30T04:25:38;13.13;;;11.80;;
2638;SDS011;1329;51.384;7.122;2023-08-30T04:28:05;13.43;;;12.13;;
2638;SDS011;1329;51.384;7.122;2023-08-30T04:30:32;13.07;;;11.80;;
2638;SDS011;1329;51.384;7.122;2023-08-30T04:33:01;12.10;;;11.00;;
2638;SDS011;1329;51.384;7.122;2023-08-30T04:35:30;13.18;;;11.88;;
2638;SDS011;1329;51.384;7.122;2023-08-30T04:37:57;14.75;;;13.35;;
2638;SDS011;1329;51.384;7.122;2023-08-30T04:40:25;14.40;;;12.75;;
2638;SDS011;1329;51.384;7.122;2023-08-30T04:42:52;14.13;;;12.75;;
2638;SDS011;1329;51.384;7.122;2023-08-30T04:45:19;13.57;;;12.15;;
2638;SDS011;1329;51.384;7.122;2023-08-30T04:47:46;13.85;;;12.50;;
2638;SDS011;1329;51.384;7.122;2023-08-30T04:50:14;12.65;;;11.45;;
2638;SDS011;1329;51.384;7.122;2023-08-30T04:52:43;13.32;;;12.05;;
2638;SDS011;1329;51.384;7.122;2023-08-30T04:55:10;12.77;;;11.52;;
2638;SDS011;1329;51.384;7.122;2023-08-30T04:57:37;12.23;;;11.07;;
2638;SDS011;1329;51.384;7.122;2023-08-30T05:00:04;13.25;;;11.95;;
2638;SDS011;1329;51.384;7.122;2023-08-30T05:02:33;15.02;;;13.52;;
2638;SDS011;1329;51.384;7.122;2023-08-30T05:05:00;14.00;;;12.60;;
2638;SDS011;1329;51.384;7.122;2023-08-30T05:07:27;15.77;;;14.18;;
2638;SDS011;1329;51.384;7.122;2023-08-30T05:09:56;15.68;;;14.15;;
2638;SDS011;1329;51.384;7.122;2023-08-30T05:12:22;16.08;;;14.52;;
2638;SDS011;1329;51.384;7.122;2023-08-30T05:14:49;17.27;;;15.63;;
2638;SDS011;1329;51.384;7.122;2023-08-30T05:17:16;17.05;;;15.43;;
2638;SDS011;1329;51.384;7.122;2023-08-30T05:19:43;15.38;;;13.95;;
2638;SDS011;1329;51.384;7.122;2023-08-30T05:22:10;15.48;;;13.70;;
2638;SDS011;1329;51.384;7.122;2023-08-30T05:24:37;16.20;;;14.63;;
2638;SDS011;1329;51.384;7.122;2023-08-30T05:27:05;15.27;;;13.82;;
2638;SDS011;1329;51.384;7.122;2023-08-30T05:29:33;15.85;;;14.38;;
2638;SDS011;1329;51.384;7.122;2023-08-30T05:32:00;16.10;;;14.40;;
2638;SDS011;1329;51.384;7.122;2023-08-30T05:34:27;16.23;;;14.63;;
2638;SDS011;1329;51.384;7.122;2023-08-30T05:36:54;15.43;;;14.00;;
2638;SDS011;1329;51.384;7.122;2023-08-30T05:39:21;15.57;;;14.13;;
2638;SDS011;1329;51.384;7.122;2023-08-30T05:41:47;17.13;;;15.52;;
2638;SDS011;1329;51.384;7.122;2023-08-30T05:44:16;15.95;;;14.45;;
2638;SDS011;1329;51.384;7.122;2023-08-30T05:46:43;15.50;;;13.93;;
2638;SDS011;1329;51.384;7.122;2023-08-30T05:49:10;16.48;;;14.82;;
2638;SDS011;1329;51.384;7.122;2023-08-30T05:51:37;16.02;;;14.50;;
2638;SDS011;1329;51.384;7.122;2023-08-30T05:54:04;16.30;;;14.68;;
2638;SDS011;1329;51.384;7.122;2023-08-30T05:56:32;15.98;;;14.32;;
2638;SDS011;1329;51.384;7.122;2023-08-30T05:58:59;16.75;;;15.00;;
2638;SDS011;1329;51.384;7.122;2023-08-30T06:01:27;16.15;;;14.65;;
2638;SDS011;1329;51.384;7.122;2023-08-30T06:03:54;16.55;;;14.85;;
2638;SDS011;1329;51.384;7.122;2023-08-30T06:06:21;15.52;;;14.02;;
2638;SDS011;1329;51.384;7.122;2023-08-30T06:08:48;15.35;;;13.85;;
2638;SDS011;1329;51.384;7.122;2023-08-30T06:11:15;15.32;;;13.88;;
2638;SDS011;1329;51.384;7.122;2023-08-30T06:13:42;15.95;;;14.35;;
2638;SDS011;1329;51.384;7.122;2023-08-30T06:16:09;16.27;;;14.60;;
2638;SDS011;1329;51.384;7.122;2023-08-30T06:18:37;16.65;;;15.00;;
2638;SDS011;1329;51.384;7.122;2023-08-30T06:21:04;16.58;;;14.88;;
2638;SDS011;1329;51.384;7.122;2023-08-30T06:23:32;16.63;;;14.88;;
2638;SDS011;1329;51.384;7.122;2023-08-30T06:26:00;16.75;;;15.07;;
2638;SDS011;1329;51.384;7.122;2023-08-30T06:28:28;16.83;;;15.13;;
2638;SDS011;1329;51.384;7.122;2023-08-30T06:30:55;17.52;;;15.18;;
2638;SDS011;1329;51.384;7.122;2023-08-30T06:33:24;16.63;;;15.02;;
2638;SDS011;1329;51.384;7.122;2023-08-30T06:35:53;15.93;;;14.40;;
2638;SDS011;1329;51.384;7.122;2023-08-30T06:38:21;16.00;;;14.38;;
2638;SDS011;1329;51.384;7.122;2023-08-30T06:40:48;16.08;;;14.52;;
2638;SDS011;1329;51.384;7.122;2023-08-30T06:43:15;15.80;;;14.20;;
2638;SDS011;1329;51.384;7.122;2023-08-30T06:45:43;16.38;;;13.55;;
2638;SDS011;1329;51.384;7.122;2023-08-30T06:48:11;14.73;;;13.32;;
2638;SDS011;1329;51.384;7.122;2023-08-30T06:50:38;16.13;;;14.52;;
2638;SDS011;1329;51.384;7.122;2023-08-30T06:53:06;14.25;;;12.93;;
2638;SDS011;1329;51.384;7.122;2023-08-30T06:55:34;15.45;;;13.88;;
2638;SDS011;1329;51.384;7.122;2023-08-30T06:58:02;15.52;;;13.98;;
2638;SDS011;1329;51.384;7.122;2023-08-30T07:00:31;16.15;;;14.48;;
2638;SDS011;1329;51.384;7.122;2023-08-30T07:02:58;16.17;;;14.57;;
2638;SDS011;1329;51.384;7.122;2023-08-30T07:05:25;14.95;;;13.57;;
2638;SDS011;1329;51.384;7.122;2023-08-30T07:07:52;15.98;;;14.32;;
2638;SDS011;1329;51.384;7.122;2023-08-30T07:10:20;15.80;;;14.10;;
2638;SDS011;1329;51.384;7.122;2023-08-30T07:12:48;14.55;;;13.15;;
2638;SDS011;1329;51.384;7.122;2023-08-30T07:15:15;13.45;;;12.20;;
2638;SDS011;1329;51.384;7.122;2023-08-30T07:17:42;14.63;;;13.27;;
2638;SDS011;1329;51.384;7.122;2023-08-30T07:20:10;14.48;;;13.10;;
2638;SDS011;1329;51.384;7.122;2023-08-30T07:22:37;14.45;;;12.98;;
2638;SDS011;1329;51.384;7.122;2023-08-30T07:25:04;14.55;;;13.02;;
2638;SDS011;1329;51.384;7.122;2023-08-30T07:27:35;13.23;;;11.98;;
2638;SDS011;1329;51.384;7.122;2023-08-30T07:30:02;13.15;;;11.95;;
2638;SDS011;1329;51.384;7.122;2023-08-30T07:32:30;13.85;;;12.45;;
2638;SDS011;1329;51.384;7.122;2023-08-30T07:34:57;12.13;;;11.02;;
2638;SDS011;1329;51.384;7.122;2023-08-30T07:37:24;11.95;;;10.80;;
2638;SDS011;1329;51.384;7.122;2023-08-30T07:39:51;11.70;;;10.60;;
2638;SDS011;1329;51.384;7.122;2023-08-30T07:42:18;11.90;;;10.75;;
2638;SDS011;1329;51.384;7.122;2023-08-30T07:44:47;10.93;;;9.82;;
2638;SDS011;1329;51.384;7.122;2023-08-30T07:47:14;10.05;;;9.15;;
2638;SDS011;1329;51.384;7.122;2023-08-30T07:49:41;9.15;;;8.25;;
2638;SDS011;1329;51.384;7.122;2023-08-30T07:52:08;7.95;;;7.22;;
2638;SDS011;1329;51.384;7.122;2023-08-30T07:54:36;7.18;;;6.47;;
2638;SDS011;1329;51.384;7.122;2023-08-30T07:57:03;7.07;;;6.45;;
2638;SDS011;1329;51.384;7.122;2023-08-30T07:59:32;5.90;;;5.40;;
2638;SDS011;1329;51.384;7.122;2023-08-30T08:02:01;6.80;;;6.10;;
2638;SDS011;1329;51.384;7.122;2023-08-30T08:04:31;5.63;;;5.13;;
2638;SDS011;1329;51.384;7.122;2023-08-30T08:06:58;5.88;;;5.35;;
2638;SDS011;1329;51.384;7.122;2023-08-30T08:09:25;6.30;;;5.57;;
2638;SDS011;1329;51.384;7.122;2023-08-30T08:11:53;5.50;;;5.10;;
2638;SDS011;1329;51.384;7.122;2023-08-30T08:14:21;5.85;;;5.35;;
2638;SDS011;1329;51.384;7.122;2023-08-30T08:16:48;5.68;;;5.18;;
2638;SDS011;1329;51.384;7.122;2023-08-30T08:19:16;5.70;;;5.07;;
2638;SDS011;1329;51.384;7.122;2023-08-30T08:21:45;4.93;;;4.43;;
2638;SDS011;1329;51.384;7.122;2023-08-30T08:24:12;5.43;;;4.93;;
2638;SDS011;1329;51.384;7.122;2023-08-30T08:26:39;5.68;;;5.18;;
2638;SDS011;1329;51.384;7.122;2023-08-30T08:29:06;5.22;;;4.60;;
2638;SDS011;1329;51.384;7.122;2023-08-30T08:31:33;4.90;;;4.50;;
2638;SDS011;1329;51.384;7.122;2023-08-30T08:34:07;5.20;;;4.80;;
2638;SDS011;1329;51.384;7.122;2023-08-30T08:36:37;4.70;;;4.30;;
2638;SDS011;1329;51.384;7.122;2023-08-30T08:39:08;4.68;;;3.80;;
2638;SDS011;1329;51.384;7.122;2023-08-30T08:41:35;4.20;;;3.80;;
2638;SDS011;1329;51.384;7.122;2023-08-30T08:44:06;4.50;;;4.07;;
2638;SDS011;1329;51.384;7.122;2023-08-30T08:46:34;5.47;;;3.60;;
2638;SDS011;1329;51.384;7.122;2023-08-30T08:49:05;4.20;;;3.80;;
2638;SDS011;1329;51.384;7.122;2023-08-30T08:51:36;4.68;;;3.80;;
2638;SDS011;1329;51.384;7.122;2023-08-30T08:54:05;4.88;;;3.97;;
2638;SDS011;1329;51.384;7.122;2023-08-30T08:56:34;4.43;;;4.03;;
2638;SDS011;1329;51.384;7.122;2023-08-30T08:59:02;4.55;;;4.15;;
2638;SDS011;1329;51.384;7.122;2023-08-30T09:01:30;4.80;;;4.30;;
2638;SDS011;1329;51.384;7.122;2023-08-30T09:04:01;4.40;;;3.97;;
2638;SDS011;1329;51.384;7.122;2023-08-30T09:06:31;4.15;;;3.75;;
2638;SDS011;1329;51.384;7.122;2023-08-30T09:08:59;3.80;;;3.50;;
2638;SDS011;1329;51.384;7.122;2023-08-30T09:11:27;4.25;;;3.85;;
2638;SDS011;1329;51.384;7.122;2023-08-30T09:13:54;4.63;;;4.07;;
2638;SDS011;1329;51.384;7.122;2023-08-30T09:16:21;4.13;;;3.78;;
2638;SDS011;1329;51.384;7.122;2023-08-30T09:18:56;5.03;;;3.97;;
2638;SDS011;1329;51.384;7.122;2023-08-30T09:21:25;4.03;;;3.63;;
2638;SDS011;1329;51.384;7.122;2023-08-30T09:24:00;4.50;;;4.15;;
2638;SDS011;1329;51.384;7.122;2023-08-30T09:26:29;4.35;;;3.95;;
2638;SDS011;1329;51.384;7.122;2023-08-30T09:29:00;6.28;;;4.03;;
2638;SDS011;1329;51.384;7.122;2023-08-30T09:31:32;5.22;;;3.75;;
2638;SDS011;1329;51.384;7.122;2023-08-30T09:34:00;4.45;;;3.70;;
2638;SDS011;1329;51.384;7.122;2023-08-30T09:36:32;3.97;;;3.67;;
2638;SDS011;1329;51.384;7.122;2023-08-30T09:39:04;4.38;;;3.97;;
2638;SDS011;1329;51.384;7.122;2023-08-30T09:41:31;4.18;;;3.78;;
2638;SDS011;1329;51.384;7.122;2023-08-30T09:43:59;4.30;;;3.67;;
2638;SDS011;1329;51.384;7.122;2023-08-30T09:46:26;4.35;;;3.95;;
2638;SDS011;1329;51.384;7.122;2023-08-30T09:48:54;4.65;;;3.47;;
2638;SDS011;1329;51.384;7.122;2023-08-30T09:51:23;4.60;;;4.20;;
2638;SDS011;1329;51.384;7.122;2023-08-30T09:53:53;4.72;;;3.72;;
2638;SDS011;1329;51.384;7.122;2023-08-30T09:56:27;3.90;;;3.45;;
2638;SDS011;1329;51.384;7.122;2023-08-30T09:58:55;3.97;;;3.67;;
2638;SDS011;1329;51.384;7.122;2023-08-30T10:01:25;4.90;;;3.95;;
2638;SDS011;1329;51.384;7.122;2023-08-30T10:03:53;3.88;;;3.58;;
2638;SDS011;1329;51.384;7.122;2023-08-30T10:06:21;4.75;;;4.30;;
2638;SDS011;1329;51.384;7.122;2023-08-30T10:08:49;4.75;;;4.18;;
2638;SDS011;1329;51.384;7.122;2023-08-30T10:11:19;3.92;;;3.53;;
2638;SDS011;1329;51.384;7.122;2023-08-30T10:13:49;4.25;;;3.85;;
2638;SDS011;1329;51.384;7.122;2023-08-30T10:16:19;4.80;;;4.30;;
2638;SDS011;1329;51.384;7.122;2023-08-30T10:18:46;4.90;;;4.50;;
2638;SDS011;1329;51.384;7.122;2023-08-30T10:21:16;5.85;;;5.00;;
2638;SDS011;1329;51.384;7.122;2023-08-30T10:23:46;4.93;;;4.53;;
2638;SDS011;1329;51.384;7.122;2023-08-30T10:26:16;4.95;;;4.45;;
2638;SDS011;1329;51.384;7.122;2023-08-30T10:28:44;5.22;;;4.82;;
2638;SDS011;1329;51.384;7.122;2023-08-30T10:31:14;5.43;;;4.93;;
2638;SDS011;1329;51.384;7.122;2023-08-30T10:33:46;5.55;;;4.95;;
2638;SDS011;1329;51.384;7.122;2023-08-30T10:36:20;5.30;;;4.88;;
2638;SDS011;1329;51.384;7.122;2023-08-30T10:38:48;5.68;;;5.15;;
2638;SDS011;1329;51.384;7.122;2023-08-30T10:41:19;5.13;;;4.72;;
2638;SDS011;1329;51.384;7.122;2023-08-30T10:43:51;5.80;;;4.78;;
2638;SDS011;1329;51.384;7.122;2023-08-30T10:46:30;5.30;;;4.88;;
2638;SDS011;1329;51.384;7.122;2023-08-30T10:49:07;5.30;;;4.80;;
2638;SDS011;1329;51.384;7.122;2023-08-30T10:51:37;5.38;;;4.88;;
2638;SDS011;1329;51.384;7.122;2023-08-30T10:54:11;4.97;;;4.57;;
2638;SDS011;1329;51.384;7.122;2023-08-30T10:56:54;6.28;;;4.85;;
2638;SDS011;1329;51.384;7.122;2023-08-30T10:59:24;5.35;;;4.75;;
2638;SDS011;1329;51.384;7.122;2023-08-30T11:01:53;5.25;;;4.82;;
2638;SDS011;1329;51.384;7.122;2023-08-30T11:04:21;5.28;;;4.78;;
2638;SDS011;1329;51.384;7.122;2023-08-30T11:06:49;6.25;;;5.30;;
2638;SDS011;1329;51.384;7.122;2023-08-30T11:09:17;5.65;;;5.15;;
2638;SDS011;1329;51.384;7.122;2023-08-30T11:11:47;5.65;;;5.15;;
2638;SDS011;1329;51.384;7.122;2023-08-30T11:14:16;6.25;;;5.65;;
2638;SDS011;1329;51.384;7.122;2023-08-30T11:16:44;5.60;;;5.10;;
2638;SDS011;1329;51.384;7.122;2023-08-30T11:19:13;5.93;;;5.40;;
2638;SDS011;1329;51.384;7.122;2023-08-30T11:21:40;6.03;;;5.53;;
2638;SDS011;1329;51.384;7.122;2023-08-30T11:24:10;5.88;;;5.18;;
2638;SDS011;1329;51.384;7.122;2023-08-30T11:26:38;5.57;;;5.07;;
2638;SDS011;1329;51.384;7.122;2023-08-30T11:29:05;5.47;;;5.03;;
2638;SDS011;1329;51.384;7.122;2023-08-30T11:31:33;6.38;;;5.78;;
2638;SDS011;1329;51.384;7.122;2023-08-30T11:34:01;5.70;;;5.18;;
2638;SDS011;1329;51.384;7.122;2023-08-30T11:36:29;5.25;;;4.75;;
2638;SDS011;1329;51.384;7.122;2023-08-30T11:38:58;5.20;;;4.70;;
2638;SDS011;1329;51.384;7.122;2023-08-30T11:41:25;3.45;;;3.15;;
2638;SDS011;1329;51.384;7.122;2023-08-30T11:43:52;6.50;;;3.30;;
2638;SDS011;1329;51.384;7.122;2023-08-30T11:46:20;2.70;;;2.50;;
2638;SDS011;1329;51.384;7.122;2023-08-30T11:48:48;3.88;;;2.60;;
2638;SDS011;1329;51.384;7.122;2023-08-30T11:51:17;2.83;;;2.50;;
2638;SDS011;1329;51.384;7.122;2023-08-30T11:53:47;2.60;;;2.40;;
2638;SDS011;1329;51.384;7.122;2023-08-30T11:56:15;2.60;;;2.40;;
2638;SDS011;1329;51.384;7.122;2023-08-30T11:58:43;2.17;;;2.05;;
2638;SDS011;1329;51.384;7.122;2023-08-30T12:01:10;3.83;;;2.03;;
2638;SDS011;1329;51.384;7.122;2023-08-30T12:03:38;2.70;;;1.92;;
2638;SDS011;1329;51.384;7.122;2023-08-30T12:06:09;2.88;;;1.98;;
2638;SDS011;1329;51.384;7.122;2023-08-30T12:08:36;1.95;;;1.80;;
2638;SDS011;1329;51.384;7.122;2023-08-30T12:11:05;2.33;;;2.03;;
2638;SDS011;1329;51.384;7.122;2023-08-30T12:13:32;3.67;;;2.28;;
2638;SDS011;1329;51.384;7.122;2023-08-30T12:16:00;2.35;;;2.22;;
2638;SDS011;1329;51.384;7.122;2023-08-30T12:18:28;2.45;;;2.10;;
2638;SDS011;1329;51.384;7.122;2023-08-30T12:20:59;2.53;;;2.33;;
2638;SDS011;1329;51.384;7.122;2023-08-30T12:23:29;2.30;;;2.10;;
2638;SDS011;1329;51.384;7.122;2023-08-30T12:25:59;2.38;;;2.28;;
2638;SDS011;1329;51.384;7.122;2023-08-30T12:28:30;2.60;;;2.40;;
2638;SDS011;1329;51.384;7.122;2023-08-30T12:30:59;3.05;;;2.75;;
2638;SDS011;1329;51.384;7.122;2023-08-30T12:33:26;2.58;;;2.35;;
2638;SDS011;1329;51.384;7.122;2023-08-30T12:35:54;2.58;;;2.38;;
2638;SDS011;1329;51.384;7.122;2023-08-30T12:38:21;2.70;;;2.50;;
2638;SDS011;1329;51.384;7.122;2023-08-30T12:40:49;2.40;;;2.20;;
2638;SDS011;1329;51.384;7.122;2023-08-30T12:43:17;2.72;;;2.53;;
2638;SDS011;1329;51.384;7.122;2023-08-30T12:45:47;2.80;;;2.60;;
2638;SDS011;1329;51.384;7.122;2023-08-30T12:48:16;3.13;;;2.88;;
2638;SDS011;1329;51.384;7.122;2023-08-30T12:50:45;3.00;;;2.70;;
2638;SDS011;1329;51.384;7.122;2023-08-30T12:53:13;3.13;;;2.53;;
2638;SDS011;1329;51.384;7.122;2023-08-30T12:55:41;2.80;;;2.60;;
2638;SDS011;1329;51.384;7.122;2023-08-30T12:58:08;3.13;;;2.83;;
2638;SDS011;1329;51.384;7.122;2023-08-30T13:00:36;2.80;;;2.60;;
2638;SDS011;1329;51.384;7.122;2023-08-30T13:03:05;3.28;;;2.97;;
2638;SDS011;1329;51.384;7.122;2023-08-30T13:05:32;3.05;;;2.85;;
2638;SDS011;1329;51.384;7.122;2023-08-30T13:08:01;3.20;;;2.90;;
2638;SDS011;1329;51.384;7.122;2023-08-30T13:10:29;3.08;;;2.78;;
2638;SDS011;1329;51.384;7.122;2023-08-30T13:12:56;3.30;;;3.00;;
2638;SDS011;1329;51.384;7.122;2023-08-30T13:15:23;3.40;;;3.10;;
2638;SDS011;1329;51.384;7.122;2023-08-30T13:17:50;3.17;;;2.97;;
2638;SDS011;1329;51.384;7.122;2023-08-30T13:20:18;3.10;;;2.90;;
2638;SDS011;1329;51.384;7.122;2023-08-30T13:22:45;3.00;;;2.80;;
2638;SDS011;1329;51.384;7.122;2023-08-30T13:25:12;3.22;;;2.97;;
2638;SDS011;1329;51.384;7.122;2023-08-30T13:27:39;3.47;;;3.20;;
2638;SDS011;1329;51.384;7.122;2023-08-30T13:30:07;3.33;;;3.03;;
2638;SDS011;1329;51.384;7.122;2023-08-30T13:32:34;3.38;;;3.08;;
2638;SDS011;1329;51.384;7.122;2023-08-30T13:35:01;3.03;;;2.83;;
2638;SDS011;1329;51.384;7.122;2023-08-30T13:37:29;3.40;;;3.10;;
2638;SDS011;1329;51.384;7.122;2023-08-30T13:39:56;3.60;;;3.30;;
2638;SDS011;1329;51.384;7.122;2023-08-30T13:42:23;3.13;;;2.92;;
2638;SDS011;1329;51.384;7.122;2023-08-30T13:44:50;2.75;;;2.55;;
2638;SDS011;1329;51.384;7.122;2023-08-30T13:47:17;2.97;;;2.78;;
2638;SDS011;1329;51.384;7.122;2023-08-30T13:49:44;2.63;;;2.45;;
2638;SDS011;1329;51.384;7.122;2023-08-30T13:52:11;2.75;;;2.55;;
2638;SDS011;1329;51.384;7.122;2023-08-30T13:54:40;2.90;;;2.70;;
2638;SDS011;1329;51.384;7.122;2023-08-30T13:57:07;2.83;;;2.63;;
2638;SDS011;1329;51.384;7.122;2023-08-30T13:59:34;4.43;;;2.60;;
2638;SDS011;1329;51.384;7.122;2023-08-30T14:02:01;3.22;;;2.92;;
2638;SDS011;1329;51.384;7.122;2023-08-30T14:04:29;3.28;;;2.97;;
2638;SDS011;1329;51.384;7.122;2023-08-30T14:06:57;2.92;;;2.72;;
2638;SDS011;1329;51.384;7.122;2023-08-30T14:09:24;2.88;;;2.67;;
2638;SDS011;1329;51.384;7.122;2023-08-30T14:11:52;2.88;;;2.67;;
2638;SDS011;1329;51.384;7.122;2023-08-30T14:14:20;2.97;;;2.78;;
2638;SDS011;1329;51.384;7.122;2023-08-30T14:16:47;3.00;;;2.80;;
2638;SDS011;1329;51.384;7.122;2023-08-30T14:19:14;3.20;;;3.00;;
2638;SDS011;1329;51.384;7.122;2023-08-30T14:21:42;3.30;;;3.00;;
2638;SDS011;1329;51.384;7.122;2023-08-30T14:24:09;2.97;;;2.78;;
2638;SDS011;1329;51.384;7.122;2023-08-30T14:26:36;2.90;;;2.70;;
2638;SDS011;1329;51.384;7.122;2023-08-30T14:29:05;2.80;;;2.60;;
2638;SDS011;1329;51.384;7.122;2023-08-30T14:31:31;3.20;;;2.90;;
2638;SDS011;1329;51.384;7.122;2023-08-30T14:33:59;3.00;;;2.80;;
2638;SDS011;1329;51.384;7.122;2023-08-30T14:36:26;3.15;;;2.85;;
2638;SDS011;1329;51.384;7.122;2023-08-30T14:38:52;2.85;;;2.58;;
2638;SDS011;1329;51.384;7.122;2023-08-30T14:41:19;2.97;;;2.78;;
2638;SDS011;1329;51.384;7.122;2023-08-30T14:43:46;2.88;;;2.67;;
2638;SDS011;1329;51.384;7.122;2023-08-30T14:46:15;2.90;;;2.70;;
2638;SDS011;1329;51.384;7.122;2023-08-30T14:48:44;2.72;;;2.53;;
2638;SDS011;1329;51.384;7.122;2023-08-30T14:51:11;2.90;;;2.63;;
2638;SDS011;1329;51.384;7.122;2023-08-30T14:53:38;3.22;;;2.90;;
2638;SDS011;1329;51.384;7.122;2023-08-30T14:56:05;2.80;;;2.60;;
2638;SDS011;1329;51.384;7.122;2023-08-30T14:58:33;3.47;;;3.15;;
2638;SDS011;1329;51.384;7.122;2023-08-30T15:01:01;3.40;;;3.10;;
2638;SDS011;1329;51.384;7.122;2023-08-30T15:03:29;2.88;;;2.67;;
2638;SDS011;1329;51.384;7.122;2023-08-30T15:05:57;3.45;;;2.80;;
2638;SDS011;1329;51.384;7.122;2023-08-30T15:08:24;3.47;;;3.17;;
2638;SDS011;1329;51.384;7.122;2023-08-30T15:10:51;3.50;;;3.20;;
2638;SDS011;1329;51.384;7.122;2023-08-30T15:13:18;3.25;;;3.05;;